Time;durP1;ratioP1;P1;durP2;ratioP2;P2;SDS_P1;SDS_P2;PMS_P1;PMS_P2;Temp;Humidity;BMP_temperature;BMP_pressure;BME280_temperature;BME280_humidity;BME280_pressure;Samples;Min_cycle;Max_cycle;Signal;HPM_P1;HPM_P2
2022/05/08 00:00:33;;;;;;;15.02;13.80;;;10.30;99.90;;;11.03;86.03;98412.28;5231748;28;20576;-52
2022/05/08 00:03:06;;;;;;;15.20;14.00;;;10.20;99.90;;;11.07;86.46;98415.91;5231746;28;20287;-51
2022/05/08 00:05:39;;;;;;;15.43;14.32;;;10.20;99.90;;;11.08;86.67;98420.25;5236994;28;20224;-56
2022/05/08 00:08:14;;;;;;;16.38;14.93;;;10.20;99.90;;;10.98;86.53;98412.75;5233869;28;20204;-51
2022/05/08 00:10:47;;;;;;;16.73;15.52;;;10.20;99.90;;;10.94;86.84;98406.56;5232838;28;20315;-55
2022/05/08 00:13:20;;;;;;;15.93;14.65;;;10.00;99.90;;;10.90;87.26;98413.94;5242084;28;20193;-54
2022/05/08 00:15:53;;;;;;;16.57;15.27;;;10.10;99.90;;;10.94;88.51;98413.38;5238519;28;20288;-54
2022/05/08 00:18:26;;;;;;;16.65;15.35;;;10.10;99.90;;;10.97;88.08;98416.13;5238929;28;20632;-56
2022/05/08 00:20:59;;;;;;;16.13;14.90;;;10.10;99.90;;;10.92;88.45;98412.38;5238047;28;20307;-53
2022/05/08 00:23:34;;;;;;;17.20;16.00;;;10.10;99.90;;;10.90;87.57;98413.94;5234728;28;20212;-55
2022/05/08 00:26:08;;;;;;;16.90;15.55;;;10.10;99.90;;;10.92;88.45;98412.38;5232054;28;20209;-55
2022/05/08 00:28:41;;;;;;;17.53;16.20;;;10.10;99.90;;;10.89;88.84;98417.28;5241036;28;20246;-57
2022/05/08 00:31:14;;;;;;;17.93;16.43;;;10.10;99.90;;;10.89;88.63;98412.19;5235281;28;20217;-55
2022/05/08 00:33:47;;;;;;;18.27;16.83;;;10.10;99.90;;;10.92;89.15;98407.25;5237856;28;20290;-54
2022/05/08 00:36:20;;;;;;;18.47;16.97;;;10.20;99.90;;;10.95;88.13;98402.34;5238799;28;20267;-57
2022/05/08 00:38:55;;;;;;;19.02;17.63;;;10.20;99.90;;;10.98;88.62;98405.97;5232696;28;20231;-53
2022/05/08 00:41:28;;;;;;;18.60;17.00;;;10.20;99.90;;;10.91;88.30;98408.06;5237387;28;20303;-55
2022/05/08 00:44:01;;;;;;;18.85;17.40;;;10.10;99.90;;;10.86;88.59;98406.88;5244774;28;20299;-51
2022/05/08 00:46:34;;;;;;;18.80;17.25;;;10.10;99.90;;;10.85;88.80;98406.00;5243934;28;20862;-54
2022/05/08 00:49:07;;;;;;;16.13;14.93;;;10.10;99.90;;;10.90;88.71;98408.81;5245393;28;20244;-54
2022/05/08 00:51:40;;;;;;;18.83;17.23;;;10.10;99.90;;;10.94;89.54;98411.69;5246693;28;20293;-55
2022/05/08 00:54:16;;;;;;;19.47;17.80;;;10.20;99.90;;;10.94;89.04;98404.03;5245382;28;20196;-52
2022/05/08 00:56:49;;;;;;;18.80;17.33;;;10.20;99.90;;;10.90;89.60;98404.63;5243040;28;20235;-55
2022/05/08 00:59:22;;;;;;;19.20;17.67;;;10.10;99.90;;;10.92;90.80;98409.81;5244667;28;20262;-53
2022/05/08 01:01:55;;;;;;;18.27;16.70;;;10.20;99.90;;;11.03;89.27;98401.16;5244261;28;20299;-52
2022/05/08 01:04:28;;;;;;;17.92;16.52;;;10.20;99.90;;;11.02;89.29;98400.28;5245543;28;20644;-56
2022/05/08 01:07:01;;;;;;;16.77;15.50;;;10.20;99.90;;;10.99;88.72;98405.22;5244568;28;20269;-55
2022/05/08 01:09:36;;;;;;;16.90;15.57;;;10.10;99.90;;;10.99;88.32;98394.97;5242804;28;20687;-55
2022/05/08 01:12:10;;;;;;;17.17;15.83;;;10.20;99.90;;;11.01;88.36;98398.50;5243801;28;20196;-53
2022/05/08 01:14:43;;;;;;;18.57;16.97;;;10.20;99.90;;;11.04;87.85;98402.91;5241260;28;20196;-55
2022/05/08 01:17:16;;;;;;;18.77;17.33;;;10.20;99.90;;;11.02;88.49;98404.53;5245634;28;20228;-53
2022/05/08 01:19:49;;;;;;;18.35;16.85;;;10.20;99.90;;;11.02;89.27;98404.53;5240600;28;20316;-54
2022/05/08 01:22:24;;;;;;;17.03;15.57;;;10.20;99.90;;;11.04;87.11;98408.94;5245677;28;20295;-54
2022/05/08 01:24:59;;;;;;;17.20;15.80;;;10.20;99.90;;;11.01;87.82;98406.16;5244234;28;20294;-56
2022/05/08 01:27:32;;;;;;;15.75;14.45;;;10.10;99.90;;;10.97;87.64;98403.34;5245003;28;20220;-56
2022/05/08 01:30:07;;;;;;;17.30;15.97;;;10.10;99.90;;;10.85;88.18;98400.00;5242981;28;20228;-56
2022/05/08 01:32:40;;;;;;;15.43;14.27;;;10.00;99.90;;;10.86;87.50;98406.88;5243870;28;20281;-56
2022/05/08 01:35:13;;;;;;;16.93;15.70;;;10.00;99.90;;;10.78;88.28;98404.69;5244562;28;20627;-55
2022/05/08 01:37:47;;;;;;;16.48;15.18;;;9.90;99.90;;;10.75;88.29;98408.72;5245269;28;20284;-57
2022/05/08 01:40:21;;;;;;;17.90;16.50;;;9.90;99.90;;;10.70;88.18;98402.41;5242446;28;20216;-57
2022/05/08 01:42:54;;;;;;;18.30;16.80;;;9.80;99.90;;;10.66;87.74;98401.34;5244874;28;20292;-54
2022/05/08 01:45:27;;;;;;;17.93;16.47;;;9.80;99.90;;;10.67;88.19;98402.22;5244578;28;20611;-55
2022/05/08 01:50:53;;;;;;;18.40;17.00;;;9.70;99.90;;;10.60;88.45;98403.50;5244600;28;20635;-54
2022/05/08 01:53:29;;;;;;;17.73;16.43;;;9.80;99.90;;;10.54;88.44;98413.31;5244799;28;20196;-55
2022/05/08 01:56:07;;;;;;;17.57;16.27;;;9.70;99.90;;;10.51;89.04;98410.56;5244604;28;20279;-57
2022/05/08 01:58:40;;;;;;;18.53;17.17;;;9.70;99.90;;;10.50;89.78;98403.66;5242752;28;20759;-57
2022/05/08 02:01:14;;;;;;;17.40;15.90;;;9.70;99.90;;;10.59;89.08;98404.31;5242704;28;20695;-55
2022/05/08 02:03:47;;;;;;;17.00;15.67;;;9.70;99.90;;;10.60;87.83;98404.38;5239229;28;20686;-52
2022/05/08 02:06:20;;;;;;;16.77;15.57;;;9.70;99.90;;;10.58;87.27;98407.63;5241895;28;20315;-52
2022/05/08 02:08:55;;;;;;;17.23;15.83;;;9.70;99.90;;;10.48;87.57;98407.81;5243513;28;20226;-53
2022/05/08 02:11:28;;;;;;;16.47;15.27;;;9.60;99.90;;;10.43;88.68;98415.16;5243571;28;20862;-57
2022/05/08 02:14:02;;;;;;;15.83;14.63;;;9.50;99.90;;;10.41;87.98;98414.16;5242586;28;20331;-55
2022/05/08 02:16:35;;;;;;;17.80;16.37;;;9.50;99.90;;;10.31;88.29;98407.56;5243108;28;20226;-55
2022/05/08 02:19:08;;;;;;;16.23;15.03;;;9.50;99.90;;;10.33;88.23;98408.56;5239188;28;20203;-55
2022/05/08 02:21:41;;;;;;;16.00;14.80;;;9.50;99.90;;;10.32;88.71;98411.00;5242313;28;20296;-53
2022/05/08 02:24:16;;;;;;;16.20;15.00;;;9.50;99.90;;;10.27;88.81;98405.59;5242064;28;20254;-55
2022/05/08 02:26:49;;;;;;;16.23;15.00;;;9.50;99.90;;;10.22;87.78;98406.06;5239219;28;20204;-54
2022/05/08 02:29:22;;;;;;;17.37;16.00;;;9.40;99.90;;;10.13;88.38;98411.44;5240683;28;20363;-55
2022/05/08 02:31:55;;;;;;;15.07;14.00;;;9.30;99.90;;;10.14;88.70;98400.41;5244419;28;20288;-54
2022/05/08 02:34:28;;;;;;;15.93;14.73;;;9.30;99.90;;;10.18;88.51;98407.50;5243002;28;20196;-53
2022/05/08 02:37:01;;;;;;;16.27;14.97;;;9.30;99.90;;;10.12;89.24;98407.06;5242098;28;20265;-53
2022/05/08 02:39:36;;;;;;;16.33;15.03;;;9.30;99.90;;;10.09;87.98;98401.78;5243949;28;20308;-57
2022/05/08 02:42:09;;;;;;;16.37;15.17;;;9.20;99.90;;;10.04;88.93;98405.66;5242319;28;20292;-55
2022/05/08 02:44:42;;;;;;;17.67;16.27;;;9.20;99.90;;;9.97;88.71;98406.94;5244642;28;20284;-53
2022/05/08 02:47:15;;;;;;;16.77;15.47;;;9.10;99.90;;;9.96;88.46;98405.16;5239448;28;20227;-58
2022/05/08 02:49:48;;;;;;;17.53;16.13;;;9.10;99.90;;;9.97;89.11;98406.06;5243162;28;20220;-51
2022/05/08 02:52:21;;;;;;;17.43;16.03;;;9.10;99.90;;;9.97;88.61;98401.81;5240542;28;20239;-52
2022/05/08 02:54:56;;;;;;;17.97;16.57;;;9.20;99.90;;;9.98;89.37;98402.69;5240728;28;20667;-53
2022/05/08 03:00:20;;;;;;;17.20;15.90;;;9.10;99.90;;;9.90;89.27;98397.97;5242918;28;20606;-54
2022/05/08 03:02:53;;;;;;;16.87;15.67;;;9.00;99.90;;;9.86;88.98;98408.75;5243979;28;20560;-51
2022/05/08 03:05:26;;;;;;;17.80;16.47;;;9.10;99.90;;;9.87;88.99;98400.31;5236672;28;20204;-55
2022/05/08 03:08:00;;;;;;;17.50;16.27;;;9.00;99.90;;;9.79;89.30;98401.47;5243189;28;20224;-55
2022/05/08 03:13:21;;;;;;;16.57;15.37;;;8.90;99.90;;;9.80;87.57;98408.31;5239872;28;20292;-53
2022/05/08 03:15:54;;;;;;;16.83;15.57;;;8.80;99.90;;;9.69;87.93;98409.25;5239213;28;20217;-55
2022/05/08 03:18:28;;;;;;;17.03;15.63;;;8.80;99.90;;;9.70;88.40;98411.06;5233219;28;20208;-54
2022/05/08 03:21:01;;;;;;;18.37;16.77;;;8.80;99.90;;;9.66;89.09;98411.59;5244443;28;20667;-56
2022/05/08 03:23:34;;;;;;;16.97;15.57;;;8.80;99.90;;;9.67;89.40;98405.69;5242406;28;20208;-54
2022/05/08 03:26:09;;;;;;;17.30;15.97;;;8.80;99.90;;;9.69;89.01;98409.25;5241913;28;20258;-55
2022/05/08 03:28:43;;;;;;;17.90;16.50;;;8.80;99.90;;;9.67;88.83;98410.81;5241250;28;20220;-52
2022/05/08 03:31:16;;;;;;;17.77;16.30;;;8.80;99.90;;;9.63;89.51;98411.38;5235388;28;20244;-57
2022/05/08 03:33:50;;;;;;;16.93;15.63;;;8.80;99.90;;;9.66;88.51;98419.25;5242093;28;20196;-56
2022/05/08 03:36:23;;;;;;;15.57;14.37;;;8.80;99.90;;;9.57;88.69;98410.97;5235384;28;20296;-55
2022/05/08 03:38:57;;;;;;;17.20;15.80;;;8.70;99.90;;;9.66;87.98;98414.16;5242894;28;20208;-56
2022/05/08 03:41:31;;;;;;;16.10;14.90;;;8.70;99.90;;;9.61;89.22;98415.50;5241391;28;20299;-57
2022/05/08 03:44:04;;;;;;;17.87;16.47;;;8.80;99.90;;;9.60;89.27;98414.59;5244937;28;20238;-52
2022/05/08 03:46:39;;;;;;;18.47;16.97;;;8.80;99.90;;;9.59;89.47;98411.97;5249504;28;20636;-54
2022/05/08 03:49:12;;;;;;;17.47;16.10;;;8.70;99.90;;;9.52;88.85;98408.06;5245904;28;20687;-55
2022/05/08 03:51:45;;;;;;;19.67;18.13;;;8.70;99.90;;;9.41;90.11;98421.75;5249167;28;20196;-55
2022/05/08 03:54:19;;;;;;;17.87;16.47;;;8.70;99.90;;;9.45;90.65;98428.84;5246688;28;20301;-52
2022/05/08 03:56:53;;;;;;;19.63;18.13;;;8.70;99.90;;;9.48;90.44;98418.88;5248226;28;20196;-57
2022/05/08 03:59:26;;;;;;;18.00;16.50;;;8.70;99.90;;;9.47;91.09;98430.75;5249787;28;20302;-56
2022/05/08 04:01:59;;;;;;;18.17;16.77;;;8.70;99.90;;;9.56;91.19;98421.97;5247153;28;20750;-56
2022/05/08 04:04:32;;;;;;;18.17;16.73;;;8.80;99.90;;;9.59;90.44;98423.06;5249708;28;20295;-56
2022/05/08 04:07:05;;;;;;;17.40;16.10;;;8.80;99.90;;;9.59;89.04;98420.50;5248518;28;20623;-53
2022/05/08 04:09:38;;;;;;;16.10;14.90;;;8.70;99.90;;;9.55;88.83;98425.28;5248621;28;20216;-54
2022/05/08 04:12:13;;;;;;;17.77;16.37;;;8.70;99.90;;;9.38;88.91;98427.50;5244087;28;20311;-54
2022/05/08 04:14:46;;;;;;;18.23;16.67;;;8.50;99.90;;;9.32;88.93;98429.63;5248706;28;20287;-57
2022/05/08 04:17:20;;;;;;;16.90;15.50;;;8.50;99.90;;;9.34;90.04;98433.19;5249899;28;20226;-54
2022/05/08 04:19:53;;;;;;;18.33;17.03;;;8.50;99.90;;;9.36;90.78;98436.75;5243510;28;20224;-55
2022/05/08 04:25:16;;;;;;;18.73;17.30;;;8.70;99.90;;;9.52;90.31;98440.38;5249269;28;20597;-55
2022/05/08 04:27:51;;;;;;;18.80;17.30;;;8.70;99.90;;;9.53;90.60;98439.59;5248388;28;20264;-53
2022/05/08 04:30:25;;;;;;;17.83;16.43;;;8.80;99.90;;;9.56;90.01;98435.59;5244452;28;20243;-51
2022/05/08 04:32:58;;;;;;;16.60;15.30;;;8.70;99.90;;;9.54;88.48;98441.38;5247149;28;20668;-54
2022/05/08 04:35:31;;;;;;;17.70;16.30;;;8.70;99.90;;;9.55;88.67;98435.47;5245244;28;20296;-52
2022/05/08 04:38:04;;;;;;;16.50;15.33;;;8.70;99.90;;;9.58;88.62;98436.56;5247799;28;20660;-52
2022/05/08 04:40:38;;;;;;;17.53;16.23;;;8.70;99.90;;;9.64;88.40;98431.00;5248357;28;20222;-57
2022/05/08 04:43:12;;;;;;;17.57;16.10;;;8.80;99.90;;;9.67;89.07;98438.88;5248998;28;20664;-56
2022/05/08 04:45:45;;;;;;;18.13;16.63;;;8.90;99.90;;;9.69;90.27;98439.88;5249151;28;20233;-53
2022/05/08 04:48:18;;;;;;;17.33;15.97;;;8.90;99.90;;;9.72;89.67;98440.09;5243787;28;20308;-57
2022/05/08 04:50:51;;;;;;;19.07;17.37;;;8.90;99.90;;;9.75;89.51;98445.41;5248079;28;20274;-54
2022/05/08 04:53:24;;;;;;;18.77;17.20;;;9.00;99.90;;;9.77;89.36;98442.97;5249404;28;20553;-52
2022/05/08 04:55:57;;;;;;;17.93;16.33;;;9.00;99.90;;;9.78;89.57;98442.19;5243187;28;20201;-56
2022/05/08 04:58:33;;;;;;;17.67;16.37;;;9.10;99.90;;;9.79;88.98;98442.31;5244062;28;20296;-53
2022/05/08 05:01:06;;;;;;;17.20;15.60;;;8.90;99.90;;;9.86;87.70;98444.50;5244133;28;20232;-54
2022/05/08 05:03:41;;;;;;;17.10;15.80;;;9.00;99.90;;;9.89;88.15;98449.81;5246582;28;20263;-56
2022/05/08 05:06:14;;;;;;;16.53;15.23;;;9.00;99.90;;;9.90;87.93;98441.38;5245814;28;20743;-56
2022/05/08 05:08:47;;;;;;;17.23;15.93;;;9.10;99.90;;;9.98;87.28;98448.66;5243107;28;20753;-55
2022/05/08 05:11:20;;;;;;;17.20;15.80;;;9.10;99.90;;;9.98;88.65;98448.66;5244863;28;20303;-57
2022/05/08 05:13:54;;;;;;;18.20;16.77;;;9.20;99.90;;;10.01;88.59;98452.31;5245126;28;20228;-55
2022/05/08 05:16:27;;;;;;;17.97;16.47;;;9.20;99.90;;;10.06;87.81;98457.75;5244751;28;20291;-56
2022/05/08 05:19:01;;;;;;;17.47;16.17;;;9.20;99.90;;;10.07;88.53;98456.97;5244675;28;20292;-54
2022/05/08 05:21:34;;;;;;;17.03;15.73;;;9.30;99.90;;;10.14;88.93;98460.03;5246444;28;20231;-56
2022/05/08 05:24:07;;;;;;;17.50;16.10;;;9.40;99.90;;;10.17;88.35;98453.38;5243131;28;20706;-56
2022/05/08 05:26:40;;;;;;;18.27;16.77;;;9.40;99.90;;;10.21;87.60;98458.78;5245812;28;20228;-56
2022/05/08 05:29:15;;;;;;;18.40;16.90;;;9.30;99.90;;;10.23;88.31;98461.47;5243001;28;20248;-56
2022/05/08 05:31:48;;;;;;;18.27;16.77;;;9.40;99.90;;;10.27;88.04;98459.25;5243889;28;20275;-53
2022/05/08 05:34:21;;;;;;;18.60;17.10;;;9.50;99.90;;;10.35;86.79;98462.31;5245686;28;20604;-55
2022/05/08 05:36:54;;;;;;;17.10;15.80;;;9.50;99.90;;;10.37;87.18;98461.63;5244247;28;20284;-56
2022/05/08 05:39:27;;;;;;;18.20;16.70;;;9.60;99.90;;;10.48;87.18;98464.03;5245024;28;20347;-54
2022/05/08 05:42:00;;;;;;;17.80;16.40;;;9.70;99.90;;;10.58;86.44;98466.41;5244017;28;20192;-57
2022/05/08 05:44:35;;;;;;;18.47;17.13;;;9.70;99.90;;;10.65;87.94;98462.63;5243833;28;20193;-54
2022/05/08 05:49:58;;;;;;;18.17;16.77;;;9.90;99.90;;;10.80;87.69;98472.16;5241003;28;20315;-54
2022/05/08 05:52:35;;;;;;;17.33;16.03;;;10.00;99.90;;;10.94;86.07;98469.63;5243444;28;20211;-55
2022/05/08 05:55:10;;;;;;;17.70;16.40;;;10.00;99.90;;;11.02;87.00;98471.03;5241062;28;20390;-52
2022/05/08 05:57:43;;;;;;;19.93;18.43;;;10.10;99.90;;;11.05;86.10;98472.09;5242283;28;20279;-53
2022/05/08 06:00:20;;;;;;;22.07;20.27;;;10.20;99.90;;;11.16;86.68;98475.38;5243258;28;20221;-54
2022/05/08 06:02:53;;;;;;;20.10;18.48;;;10.40;99.90;;;11.31;86.19;98474.56;5244305;28;20249;-54
2022/05/08 06:05:26;;;;;;;20.02;18.38;;;10.50;99.90;;;11.40;86.37;98477.72;5243318;28;20224;-55
2022/05/08 06:07:59;;;;;;;19.50;17.77;;;10.50;99.90;;;11.57;85.29;98476.22;5235497;28;20254;-55
2022/05/08 06:10:33;;;;;;;19.52;18.00;;;10.60;99.90;;;11.64;85.55;98476.69;5242963;28;20256;-55
2022/05/08 06:13:07;;;;;;;20.48;18.73;;;10.80;99.90;;;11.70;85.17;98482.22;5237433;28;20677;-52
2022/05/08 06:15:41;;;;;;;19.65;18.00;;;10.80;99.90;;;11.73;85.49;98474.72;5238127;28;20254;-55
2022/05/08 06:18:14;;;;;;;20.77;19.05;;;10.80;99.90;;;11.77;85.48;98469.78;5241340;28;20719;-56
2022/05/08 06:20:48;;;;;;;20.10;18.50;;;10.90;99.90;;;11.94;85.01;98476.88;5242194;28;20235;-55
2022/05/08 06:23:21;;;;;;;19.45;18.00;;;11.00;99.90;;;12.02;84.40;98482.44;5241728;28;20254;-57
2022/05/08 06:25:54;;;;;;;20.67;19.05;;;11.10;99.90;;;12.09;85.03;98477.81;5241254;28;20668;-56
2022/05/08 06:28:29;;;;;;;20.45;18.85;;;11.20;99.90;;;12.18;84.32;98488.59;5240524;28;20257;-55
2022/05/08 06:31:04;;;;;;;20.73;19.02;;;11.30;99.90;;;12.33;83.52;98485.19;5244173;28;20270;-55
2022/05/08 06:33:37;;;;;;;18.30;16.88;;;11.40;99.90;;;12.45;83.38;98483.41;5233838;28;20734;-52
2022/05/08 06:36:11;;;;;;;20.70;19.00;;;11.40;99.90;;;12.54;82.98;98486.50;5235027;28;20220;-56
2022/05/08 06:38:45;;;;;;;20.48;18.58;;;11.60;99.90;;;12.67;82.41;98477.84;5233726;28;20215;-55
2022/05/08 06:41:18;;;;;;;18.67;17.27;;;11.70;99.90;;;12.75;81.92;98486.00;5234983;28;20842;-57
2022/05/08 06:43:53;;;;;;;19.38;17.80;;;11.80;99.90;;;12.78;81.74;98493.88;5238093;28;20626;-54
2022/05/08 06:46:31;;;;;;;19.35;17.65;;;11.90;99.90;;;12.91;81.29;98495.47;5235575;28;20231;-54
2022/05/08 06:49:05;;;;;;;19.67;18.05;;;12.00;99.90;;;13.11;80.27;98488.94;5231338;28;20311;-52
2022/05/08 06:51:39;;;;;;;20.35;18.85;;;12.10;99.90;;;13.20;80.45;98490.31;5236994;28;20296;-53
2022/05/08 06:54:12;;;;;;;19.92;18.20;;;12.20;99.90;;;13.25;79.93;98493.16;5236067;28;20296;-56
2022/05/08 06:56:51;;;;;;;19.08;17.58;;;12.20;99.90;;;13.32;79.14;98492.72;5237318;28;20616;-55
2022/05/08 07:02:16;;;;;;;20.60;18.90;;;12.40;99.90;;;13.40;79.74;98504.31;5240308;28;20274;-53
2022/05/08 07:04:49;;;;;;;20.88;19.27;;;12.30;99.90;;;13.51;79.16;98497.22;5241889;28;20195;-55
2022/05/08 07:07:23;;;;;;;19.90;18.30;;;12.50;99.90;;;13.64;79.09;98504.78;5235898;28;20224;-54
2022/05/08 07:09:56;;;;;;;19.50;17.92;;;12.60;99.90;;;13.82;78.07;98488.63;5231557;28;20330;-55
2022/05/08 07:12:30;;;;;;;19.25;17.73;;;12.80;99.90;;;13.91;78.82;98497.72;5235251;28;20271;-53
2022/05/08 07:15:04;;;;;;;20.40;18.73;;;12.90;99.90;;;13.94;78.95;98497.91;5227856;28;20287;-56
2022/05/08 07:17:39;;;;;;;18.27;16.88;;;12.90;99.90;;;14.02;77.76;98498.31;5226678;28;20259;-56
2022/05/08 07:20:13;;;;;;;19.30;17.83;;;12.90;99.90;;;14.18;77.04;98500.00;5240828;28;20295;-55
2022/05/08 07:22:46;;;;;;;19.90;18.40;;;13.00;99.90;;;14.28;76.95;98497.13;5239587;28;20249;-54
2022/05/08 07:25:19;;;;;;;19.70;18.17;;;13.10;99.90;;;14.27;78.29;98495.34;5232714;28;20671;-55
2022/05/08 07:27:52;;;;;;;19.27;17.60;;;13.20;99.90;;;14.36;76.90;98492.38;5229527;28;20208;-54
2022/05/08 07:30:25;;;;;;;21.35;19.58;;;13.30;99.90;;;14.50;76.56;98495.66;5234126;28;20228;-57
2022/05/08 07:33:01;;;;;;;19.38;17.88;;;13.40;99.90;;;14.58;75.91;98499.56;5240188;28;20238;-53
2022/05/08 07:38:25;;;;;;;20.90;19.20;;;13.50;99.90;;;14.84;75.39;98506.91;5241264;28;20725;-56
2022/05/08 07:41:04;;;;;;;19.35;17.80;;;13.60;99.90;;;14.70;76.04;98507.91;5238952;28;20228;-55
2022/05/08 07:43:38;;;;;;;20.55;18.90;;;13.50;99.90;;;14.59;76.45;98503.88;5241562;28;20201;-54
2022/05/08 07:46:12;;;;;;;18.98;17.48;;;13.50;99.90;;;14.79;76.56;98510.06;5241579;28;20291;-56
2022/05/08 07:48:47;;;;;;;20.33;18.73;;;13.80;99.90;;;14.84;75.89;98511.19;5240658;28;20200;-58
2022/05/08 07:51:20;;;;;;;18.50;17.10;;;13.90;99.90;;;14.98;75.75;98506.72;5238855;28;20318;-54
2022/05/08 07:53:53;;;;;;;19.58;18.08;;;13.90;99.90;;;15.17;74.95;98501.69;5239652;28;20253;-52
2022/05/08 07:56:26;;;;;;;18.38;16.85;;;14.10;99.90;;;15.30;74.80;98504.03;5241134;28;20219;-56
2022/05/08 07:58:59;;;;;;;19.00;17.33;;;14.20;99.90;;;15.40;74.52;98514.81;5237221;28;20205;-55
2022/05/08 08:01:32;;;;;;;18.25;16.65;;;14.30;99.90;;;15.57;73.70;98511.34;5240757;28;20255;-53
2022/05/08 08:04:24;;;;;;;19.77;18.30;;;14.40;99.90;;;15.57;73.24;98515.59;5231597;28;20204;-53
2022/05/08 08:06:57;;;;;;;19.83;18.20;;;14.40;99.90;;;15.64;73.78;98510.81;5237770;28;20359;-53
2022/05/08 08:09:30;;;;;;;19.30;17.60;;;14.60;99.90;;;15.82;73.41;98509.97;5238245;28;20248;-57
2022/05/08 08:12:04;;;;;;;19.95;18.42;;;14.60;99.90;;;15.98;72.33;98515.03;5237713;28;20261;-53
2022/05/08 08:14:37;;;;;;;20.13;18.42;;;14.80;99.90;;;16.08;71.77;98519.81;5235782;28;20617;-53
2022/05/08 08:17:21;;;;;;;18.05;16.65;;;14.90;99.90;;;16.08;71.83;98526.63;5240576;28;20576;-55
2022/05/08 08:19:58;;;;;;;18.63;17.13;;;14.90;99.90;;;16.18;72.04;98527.13;5237945;28;20226;-55
2022/05/08 08:22:31;;;;;;;19.95;18.20;;;15.00;99.90;;;16.38;71.79;98520.28;5239607;28;20196;-57
2022/05/08 08:25:05;;;;;;;19.42;17.92;;;15.10;99.90;;;16.49;71.02;98522.50;5239780;28;20713;-53
2022/05/08 08:27:38;;;;;;;18.45;17.00;;;15.30;99.90;;;16.60;70.36;98519.56;5238845;28;20292;-55
2022/05/08 08:30:13;;;;;;;19.50;17.88;;;15.40;99.90;;;16.71;70.04;98519.13;5241112;28;20775;-56
2022/05/08 08:32:47;;;;;;;19.10;17.60;;;15.60;99.90;;;16.82;69.56;98517.94;5243086;28;20318;-53
2022/05/08 08:35:21;;;;;;;18.63;17.08;;;15.70;99.90;;;16.78;69.70;98521.22;5243068;28;20628;-53
2022/05/08 08:37:55;;;;;;;18.80;17.40;;;15.70;99.90;;;16.72;70.01;98523.50;5242358;28;20226;-58
2022/05/08 08:40:28;;;;;;;18.55;17.20;;;15.60;99.90;;;16.93;69.30;98518.41;5243757;28;20244;-53
2022/05/08 08:43:02;;;;;;;18.73;17.33;;;15.80;99.90;;;17.05;68.72;98522.41;5243949;28;20307;-57
2022/05/08 08:48:30;;;;;;;17.52;16.23;;;16.00;99.90;;;17.38;68.13;98519.44;5241481;28;20277;-55
2022/05/08 08:51:04;;;;;;;18.15;16.70;;;16.20;99.90;;;17.52;67.61;98520.00;5238899;28;20212;-56
2022/05/08 08:53:37;;;;;;;18.40;17.00;;;16.30;99.90;;;17.70;66.73;98517.25;5237385;28;20274;-55
2022/05/08 08:56:11;;;;;;;17.38;16.17;;;16.40;99.90;;;17.66;66.82;98520.56;5240600;28;20212;-54
2022/05/08 08:58:44;;;;;;;18.90;17.30;;;16.50;99.90;;;17.62;67.62;98521.25;5235514;28;20732;-57
2022/05/08 09:01:17;;;;;;;17.98;16.58;;;16.50;99.90;;;17.82;67.10;98519.47;5243426;28;20303;-54
2022/05/08 09:03:50;;;;;;;19.13;17.55;;;16.60;99.90;;;17.86;66.96;98516.22;5241723;28;20283;-56
2022/05/08 09:06:25;;;;;;;42.00;38.20;;;16.70;99.90;;;18.15;65.83;98509.56;5242718;28;20283;-53
2022/05/08 09:08:58;;;;;;;130.82;117.50;;;17.00;99.90;;;18.26;65.93;98507.34;5238030;28;20309;-55
2022/05/08 09:11:34;;;;;;;35.78;32.65;;;17.10;99.90;;;18.38;65.42;98513.88;5245302;28;20314;-56
2022/05/08 09:14:07;;;;;;;81.68;73.65;;;17.30;99.90;;;18.57;65.42;98515.44;5243512;28;20730;-56
2022/05/08 09:16:53;;;;;;;47.53;43.63;;;17.50;99.90;;;18.68;65.36;98513.22;5239127;28;20796;-54
2022/05/08 09:19:34;;;;;;;18.75;17.35;;;17.60;99.90;;;18.84;64.94;98519.84;5245230;28;20696;-55
2022/05/08 09:22:11;;;;;;;15.77;14.60;;;17.70;99.90;;;19.01;64.69;98508.38;5235499;28;20599;-59
2022/05/08 09:24:53;;;;;;;12.90;11.93;;;17.90;99.90;;;18.97;59.93;98509.09;5240687;28;20569;-53
2022/05/08 09:27:26;;;;;;;12.98;12.05;;;18.10;99.90;;;19.16;59.69;98510.59;5234954;28;20200;-58
2022/05/08 09:30:09;;;;;;;14.73;13.57;;;18.30;99.90;;;19.27;60.78;98511.81;5241080;28;20258;-59
2022/05/08 09:32:44;;;;;;;12.15;11.25;;;18.50;99.90;;;19.39;59.32;98515.66;5232994;28;20217;-58
2022/05/08 09:35:18;;;;;;;11.32;10.52;;;18.60;99.90;;;19.57;59.14;98505.88;5232556;28;20291;-58
2022/05/08 09:37:54;;;;;;;11.25;10.35;;;18.70;99.90;;;19.66;58.12;98508.81;5233318;28;20201;-58
2022/05/08 09:40:27;;;;;;;12.43;11.52;;;18.90;99.90;;;19.91;57.68;98509.56;5235695;28;20303;-59
2022/05/08 09:43:00;;;;;;;11.63;10.80;;;19.10;99.90;;;20.05;57.51;98505.66;5231314;28;20280;-58
2022/05/08 09:45:33;;;;;;;10.18;9.48;;;19.20;99.90;;;20.17;57.01;98500.84;5240993;28;20223;-58
2022/05/08 09:48:08;;;;;;;11.48;10.57;;;19.30;99.90;;;20.19;54.96;98498.28;5243927;28;20240;-59
2022/05/08 09:50:42;;;;;;;9.65;8.85;;;19.30;99.90;;;20.25;55.72;98498.47;5240594;28;20224;-59
2022/05/08 09:53:19;;;;;;;9.90;9.10;;;19.50;99.90;;;20.33;53.25;98490.91;5239062;28;20287;-59
2022/05/08 09:55:54;;;;;;;9.50;8.80;;;19.60;98.70;;;20.34;53.57;98495.25;5235944;28;20246;-53
2022/05/08 09:58:27;;;;;;;9.75;8.95;;;19.60;98.90;;;20.44;53.06;98502.47;5236765;28;20227;-54
2022/05/08 10:01:02;;;;;;;9.88;9.18;;;19.60;98.40;;;20.43;51.96;98496.41;5244503;28;20764;-55
2022/05/08 10:03:35;;;;;;;15.30;14.18;;;19.60;97.60;;;20.43;53.08;98493.81;5240661;28;20637;-54
2022/05/08 10:06:08;;;;;;;49.85;44.40;;;19.60;98.30;;;20.69;51.37;98491.97;5244077;28;20207;-56
2022/05/08 10:08:45;;;;;;;22.92;20.55;;;19.80;97.20;;;20.72;49.65;98492.88;5241080;28;20239;-56
2022/05/08 10:14:26;;;;;;;7.60;7.10;;;20.00;96.60;;;20.83;49.41;98488.84;5237611;28;20238;-56
2022/05/08 10:17:04;;;;;;;6.93;6.43;;;20.10;95.50;;;20.94;48.66;98495.22;5240764;28;20704;-53
2022/05/08 10:19:58;;;;;;;6.75;6.25;;;20.20;94.80;;;20.97;48.18;98487.47;5238857;28;20311;-54
2022/05/08 10:22:48;;;;;;;6.88;6.38;;;20.30;94.10;;;20.84;47.53;98491.50;5242327;28;20745;-54
2022/05/08 10:25:23;;;;;;;6.75;6.25;;;20.20;93.80;;;20.74;47.89;98501.59;5241391;28;20432;-51
2022/05/08 10:28:06;;;;;;;6.97;6.40;;;20.20;94.00;;;20.62;48.41;98486.56;5239730;28;20218;-55
2022/05/08 10:30:40;;;;;;;6.80;6.30;;;20.00;94.10;;;20.63;48.93;98491.81;5243967;28;20365;-50
2022/05/08 10:33:13;;;;;;;6.82;6.25;;;20.00;94.30;;;20.99;47.84;98482.34;5236659;28;20659;-50
2022/05/08 10:36:07;;;;;;;7.85;7.20;;;20.30;93.80;;;20.61;48.37;98488.28;5242943;28;20196;-52
2022/05/08 10:38:40;;;;;;;6.68;6.28;;;20.20;93.60;;;20.55;48.62;98488.13;5240787;28;20707;-53
2022/05/08 10:44:39;;;;;;;7.40;6.90;;;20.20;94.20;;;20.83;48.93;98488.84;5240153;27;20602;-54
2022/05/08 10:47:41;;;;;;;7.30;6.68;;;20.20;94.40;;;20.83;47.49;98488.84;5214305;27;20293;-50
2022/05/08 10:50:15;;;;;;;6.65;6.13;;;20.30;93.40;;;20.85;47.92;98481.97;5232626;27;20232;-55
2022/05/08 10:52:50;;;;;;;6.30;5.90;;;20.20;93.80;;;20.75;47.97;98480.88;5205946;27;20194;-52
2022/05/08 10:55:29;;;;;;;6.82;6.25;;;20.20;93.40;;;20.82;48.61;98487.09;5206803;27;20210;-52
2022/05/08 10:58:02;;;;;;;6.93;6.30;;;20.20;93.80;;;20.95;48.66;98489.19;5207398;27;20284;-51
2022/05/08 11:00:37;;;;;;;6.63;6.22;;;20.30;93.90;;;21.00;47.50;98487.56;5204861;27;20228;-56
2022/05/08 11:03:10;;;;;;;7.10;6.60;;;20.40;93.30;;;20.91;47.67;98489.94;5212682;27;20320;-55
2022/05/08 11:05:43;;;;;;;6.63;6.22;;;20.30;93.40;;;21.05;47.14;98496.38;5204450;27;20592;-54
2022/05/08 11:08:24;;;;;;;6.70;6.20;;;20.30;93.30;;;20.86;48.31;98479.44;5203882;27;20301;-50